createdAt,value
2023-04-08T00:00:45.864Z,3.80
2023-04-08T00:03:12.367Z,5.65
2023-04-08T00:05:38.952Z,5.22
2023-04-08T00:08:06.429Z,4.70
2023-04-08T00:10:33.328Z,5.88
2023-04-08T00:13:00.997Z,4.88
2023-04-08T00:15:27.444Z,5.28
2023-04-08T00:17:56.914Z,4.75
2023-04-08T00:20:24.193Z,5.15
2023-04-08T00:22:50.913Z,5.53
2023-04-08T00:25:17.380Z,4.68
2023-04-08T00:27:43.793Z,4.82
2023-04-08T00:30:10.572Z,4.80
2023-04-08T00:32:37.986Z,5.10
2023-04-08T00:35:05.053Z,4.78
2023-04-08T00:37:31.719Z,5.15
2023-04-08T00:39:58.132Z,4.78
2023-04-08T00:42:24.562Z,5.07
2023-04-08T00:44:51.013Z,5.35
2023-04-08T00:47:18.319Z,4.65
2023-04-08T00:49:45.900Z,5.10
2023-04-08T00:52:12.387Z,5.43
2023-04-08T00:54:39.439Z,4.45
2023-04-08T00:57:06.355Z,4.60
2023-04-08T00:59:33.530Z,4.78
2023-04-08T01:02:35.265Z,5.47
2023-04-08T01:05:09.139Z,4.82
2023-04-08T01:07:38.071Z,6.30
2023-04-08T01:10:15.549Z,5.32
2023-04-08T01:12:48.255Z,5.30
2023-04-08T01:15:15.420Z,4.88
2023-04-08T01:17:44.387Z,5.63
2023-04-08T01:20:13.256Z,5.57
2023-04-08T01:22:58.103Z,5.82
2023-04-08T01:25:30.336Z,5.97
2023-04-08T01:27:59.812Z,6.38
2023-04-08T01:30:29.168Z,5.88
2023-04-08T01:32:59.858Z,5.22
2023-04-08T01:35:26.820Z,6.10
2023-04-08T01:37:54.228Z,5.40
2023-04-08T01:40:22.488Z,5.63
2023-04-08T01:42:50.625Z,5.25
2023-04-08T01:45:18.315Z,5.18
2023-04-08T01:47:49.908Z,6.22
2023-04-08T01:50:16.925Z,5.85
2023-04-08T01:52:48.594Z,5.55
2023-04-08T01:55:16.103Z,5.65
2023-04-08T01:57:47.647Z,6.30
2023-04-08T02:00:18.329Z,5.85
2023-04-08T02:02:49.097Z,5.68
2023-04-08T02:05:16.069Z,5.65
2023-04-08T02:07:42.492Z,5.28
2023-04-08T02:10:09.500Z,5.82
2023-04-08T02:12:36.015Z,5.68
2023-04-08T02:15:02.648Z,5.65
2023-04-08T02:17:50.416Z,6.03
2023-04-08T02:20:23.816Z,5.80
2023-04-08T02:22:59.788Z,5.43
2023-04-08T02:25:29.096Z,5.20
2023-04-08T02:27:57.072Z,5.97
2023-04-08T02:30:27.600Z,5.40
2023-04-08T02:32:56.231Z,6.13
2023-04-08T02:35:23.435Z,5.45
2023-04-08T02:37:50.624Z,5.80
2023-04-08T02:40:25.719Z,5.50
2023-04-08T02:42:52.554Z,6.63
2023-04-08T02:45:19.339Z,5.45
2023-04-08T02:47:45.890Z,5.63
2023-04-08T02:50:12.439Z,5.80
2023-04-08T02:52:39.238Z,5.88
2023-04-08T02:55:09.969Z,6.35
2023-04-08T02:57:41.035Z,5.50
2023-04-08T03:00:08.471Z,6.13
2023-04-08T03:02:35.839Z,6.28
2023-04-08T03:05:03.691Z,6.75
2023-04-08T03:07:30.273Z,6.55
2023-04-08T03:09:56.710Z,6.65
2023-04-08T03:12:23.117Z,6.60
2023-04-08T03:14:50.643Z,6.63
2023-04-08T03:17:17.138Z,7.22
2023-04-08T03:19:43.612Z,6.72
2023-04-08T03:22:10.082Z,6.60
2023-04-08T03:24:37.244Z,6.57
2023-04-08T03:27:04.031Z,7.38
2023-04-08T03:29:30.439Z,7.72
2023-04-08T03:31:57.214Z,7.72
2023-04-08T03:34:23.741Z,8.32
2023-04-08T03:36:50.324Z,7.72
2023-04-08T03:39:17.208Z,7.55
2023-04-08T03:41:43.679Z,8.10
2023-04-08T03:44:10.377Z,7.63
2023-04-08T03:46:36.741Z,7.68
2023-04-08T03:49:03.163Z,7.85
2023-04-08T03:51:29.641Z,7.65
2023-04-08T03:53:56.076Z,6.80
2023-04-08T03:56:22.503Z,7.13
2023-04-08T03:58:49.247Z,7.00
2023-04-08T04:01:16.964Z,7.10
2023-04-08T04:03:43.447Z,7.05
2023-04-08T04:06:10.128Z,7.22
2023-04-08T04:08:36.611Z,6.40
2023-04-08T04:11:03.004Z,6.30
2023-04-08T04:13:29.388Z,6.95
2023-04-08T04:15:56.722Z,6.53
2023-04-08T04:18:23.218Z,6.10
2023-04-08T04:20:49.610Z,6.88
2023-04-08T04:23:16.201Z,5.78
2023-04-08T04:25:42.776Z,7.07
2023-04-08T04:28:09.948Z,7.35
2023-04-08T04:30:40.239Z,7.03
2023-04-08T04:33:07.432Z,7.20
2023-04-08T04:35:34.094Z,7.43
2023-04-08T04:38:00.579Z,7.10
2023-04-08T04:40:27.268Z,7.00
2023-04-08T04:42:53.796Z,7.60
2023-04-08T04:45:20.179Z,7.32
2023-04-08T04:47:46.613Z,7.40
2023-04-08T04:50:13.028Z,7.75
2023-04-08T04:52:39.470Z,8.38
2023-04-08T04:55:06.543Z,7.65
2023-04-08T04:57:32.913Z,6.85
2023-04-08T04:59:59.308Z,8.00
2023-04-08T05:02:26.016Z,6.78
2023-04-08T05:04:55.733Z,7.25
2023-04-08T05:07:22.412Z,8.15
2023-04-08T05:09:48.815Z,8.20
2023-04-08T05:12:15.273Z,7.85
2023-04-08T05:14:50.626Z,6.82
2023-04-08T05:17:16.985Z,5.30
2023-04-08T05:19:43.391Z,5.97
2023-04-08T05:22:09.905Z,5.88
2023-04-08T05:24:36.370Z,5.65
2023-04-08T05:27:03.096Z,5.38
2023-04-08T05:29:29.516Z,5.03
2023-04-08T05:31:56.474Z,7.03
2023-04-08T05:34:23.193Z,5.70
2023-04-08T05:36:53.716Z,5.47
2023-04-08T05:39:20.334Z,4.93
2023-04-08T05:41:46.855Z,6.47
2023-04-08T05:44:14.121Z,5.00
2023-04-08T05:46:40.564Z,6.82
2023-04-08T05:49:06.997Z,6.50
2023-04-08T05:51:33.507Z,8.77
2023-04-08T05:54:00.094Z,8.73
2023-04-08T05:56:26.515Z,7.50
2023-04-08T05:58:52.958Z,6.10
2023-04-08T06:01:19.370Z,7.88
2023-04-08T06:03:46.013Z,6.82
2023-04-08T06:06:12.511Z,7.57
2023-04-08T06:08:38.873Z,7.65
2023-04-08T06:11:05.427Z,8.27
2023-04-08T06:13:32.218Z,8.20
2023-04-08T06:15:59.094Z,11.18
2023-04-08T06:18:25.743Z,11.38
2023-04-08T06:20:52.251Z,11.52
2023-04-08T06:23:18.630Z,8.63
2023-04-08T06:25:45.067Z,7.72
2023-04-08T06:28:11.421Z,7.57
2023-04-08T06:30:37.993Z,8.18
2023-04-08T06:33:04.459Z,7.93
2023-04-08T06:35:32.310Z,7.88
2023-04-08T06:37:59.058Z,7.53
2023-04-08T06:40:25.695Z,7.47
2023-04-08T06:42:52.450Z,8.32
2023-04-08T06:45:32.757Z,8.00
2023-04-08T06:47:59.269Z,9.20
2023-04-08T06:50:25.918Z,8.95
2023-04-08T06:52:52.294Z,7.80
2023-04-08T06:55:18.674Z,8.52
2023-04-08T06:57:45.030Z,8.65
2023-04-08T07:00:11.820Z,8.85
2023-04-08T07:02:38.266Z,8.15
2023-04-08T07:05:05.066Z,8.43
2023-04-08T07:07:32.046Z,9.07
2023-04-08T07:09:58.422Z,9.40
2023-04-08T07:12:25.031Z,10.32
2023-04-08T07:14:52.989Z,9.57
2023-04-08T07:17:19.461Z,10.70
2023-04-08T07:19:45.795Z,10.30
2023-04-08T07:22:12.194Z,10.27
2023-04-08T07:24:38.638Z,11.07
2023-04-08T07:27:05.034Z,10.80
2023-04-08T07:29:31.451Z,9.63
2023-04-08T07:31:57.840Z,10.57
2023-04-08T07:34:24.202Z,12.00
2023-04-08T07:36:50.906Z,11.82
2023-04-08T07:39:17.333Z,11.55
2023-04-08T07:41:43.776Z,9.38
2023-04-08T07:44:10.351Z,9.73
2023-04-08T07:46:38.577Z,11.23
2023-04-08T07:49:05.099Z,12.55
2023-04-08T07:51:31.539Z,12.13
2023-04-08T07:53:57.884Z,12.70
2023-04-08T07:56:24.305Z,12.15
2023-04-08T07:58:52.894Z,10.82
2023-04-08T08:01:22.433Z,11.77
2023-04-08T08:03:53.190Z,12.32
2023-04-08T08:06:20.586Z,12.35
2023-04-08T08:08:46.991Z,11.60
2023-04-08T08:11:13.498Z,11.77
2023-04-08T08:13:40.236Z,11.43
2023-04-08T08:16:08.915Z,12.52
2023-04-08T08:18:36.297Z,12.32
2023-04-08T08:21:03.258Z,13.50
2023-04-08T08:23:29.671Z,12.40
2023-04-08T08:26:03.124Z,11.88
2023-04-08T08:28:29.650Z,12.23
2023-04-08T08:30:56.371Z,12.43
2023-04-08T08:33:22.865Z,12.77
2023-04-08T08:35:49.285Z,11.50
2023-04-08T08:38:17.546Z,11.10
2023-04-08T08:40:45.150Z,11.50
2023-04-08T08:43:11.848Z,12.63
2023-04-08T08:45:42.121Z,11.30
2023-04-08T08:48:08.959Z,12.35
2023-04-08T08:50:35.716Z,13.05
2023-04-08T08:53:03.105Z,12.13
2023-04-08T08:55:56.831Z,11.48
2023-04-08T08:58:20.184Z,13.32
2023-04-08T09:00:46.699Z,12.35
2023-04-08T09:03:21.859Z,12.45
2023-04-08T09:05:48.882Z,13.63
2023-04-08T09:08:31.949Z,12.55
2023-04-08T09:11:13.291Z,12.10
2023-04-08T09:13:39.737Z,12.10
2023-04-08T09:16:11.110Z,11.75
2023-04-08T09:18:38.882Z,12.23
2023-04-08T09:21:06.772Z,12.25
2023-04-08T09:23:48.432Z,11.07
2023-04-08T09:26:17.529Z,13.15
2023-04-08T09:28:57.609Z,14.40
2023-04-08T09:31:27.638Z,16.58
2023-04-08T09:33:56.729Z,13.93
2023-04-08T09:36:23.707Z,13.05
2023-04-08T09:38:50.449Z,12.85
2023-04-08T09:41:18.561Z,16.05
2023-04-08T09:43:51.568Z,16.00
2023-04-08T09:46:24.094Z,11.82
2023-04-08T09:48:58.277Z,9.45
2023-04-08T09:51:28.122Z,11.05
2023-04-08T09:54:02.629Z,11.95
2023-04-08T09:56:41.684Z,11.82
2023-04-08T09:59:17.318Z,11.32
2023-04-08T10:01:50.254Z,12.30
2023-04-08T10:06:45.433Z,11.48
2023-04-08T10:09:12.589Z,12.45
2023-04-08T10:11:39.222Z,12.05
2023-04-08T10:14:05.769Z,11.60
2023-04-08T10:16:32.214Z,13.38
2023-04-08T10:18:58.716Z,12.02
2023-04-08T10:21:38.333Z,12.70
2023-04-08T10:24:09.230Z,13.10
2023-04-08T10:26:39.696Z,12.73
2023-04-08T10:29:18.252Z,12.13
2023-04-08T10:31:46.199Z,11.75
2023-04-08T10:34:20.367Z,11.48
2023-04-08T10:36:48.014Z,11.30
2023-04-08T10:39:16.037Z,11.52
2023-04-08T10:41:45.907Z,13.10
2023-04-08T10:44:44.418Z,11.70
2023-04-08T10:47:11.251Z,10.98
2023-04-08T10:49:37.827Z,11.18
2023-04-08T10:52:09.047Z,10.57
2023-04-08T10:54:36.607Z,11.15
2023-04-08T10:57:03.245Z,10.82
2023-04-08T10:59:32.715Z,11.02
2023-04-08T11:02:00.552Z,11.18
2023-04-08T11:04:27.190Z,9.77
2023-04-08T11:06:53.814Z,10.15
2023-04-08T11:09:20.251Z,9.50
2023-04-08T11:11:47.102Z,10.10
2023-04-08T11:14:15.504Z,9.13
2023-04-08T11:16:42.583Z,9.50
2023-04-08T11:19:09.159Z,8.80
2023-04-08T11:21:46.876Z,8.77
2023-04-08T11:24:25.712Z,8.13
2023-04-08T11:26:54.452Z,9.18
2023-04-08T11:29:21.046Z,8.90
2023-04-08T11:31:49.482Z,8.25
2023-04-08T11:34:22.603Z,9.35
2023-04-08T11:36:49.924Z,8.85
2023-04-08T11:39:16.346Z,8.93
2023-04-08T11:41:42.746Z,8.07
2023-04-08T11:44:09.198Z,6.65
2023-04-08T11:46:36.457Z,7.28
2023-04-08T11:49:07.714Z,6.95
2023-04-08T11:51:35.411Z,6.03
2023-04-08T11:54:07.210Z,6.75
2023-04-08T11:56:45.852Z,6.13
2023-04-08T11:59:12.292Z,6.90
2023-04-08T12:01:38.733Z,5.72
2023-04-08T12:04:06.861Z,5.55
2023-04-08T12:06:33.889Z,5.85
2023-04-08T12:09:00.314Z,5.30
2023-04-08T12:11:26.675Z,5.40
2023-04-08T12:13:53.531Z,5.72
2023-04-08T12:16:20.539Z,5.07
2023-04-08T12:18:47.507Z,4.93
2023-04-08T12:21:13.961Z,5.05
2023-04-08T12:23:40.522Z,5.10
2023-04-08T12:26:07.827Z,4.82
2023-04-08T12:28:35.298Z,4.72
2023-04-08T12:31:02.047Z,5.05
2023-04-08T12:33:28.534Z,5.10
2023-04-08T12:35:54.905Z,5.38
2023-04-08T12:38:21.313Z,5.55
2023-04-08T12:40:49.152Z,5.30
2023-04-08T12:43:16.596Z,5.90
2023-04-08T12:45:43.400Z,5.18
2023-04-08T12:48:10.187Z,5.28
2023-04-08T12:50:36.809Z,6.15
2023-04-08T12:53:03.285Z,4.80
2023-04-08T12:55:29.682Z,5.07
2023-04-08T12:57:56.547Z,5.25
2023-04-08T13:00:22.952Z,4.93
2023-04-08T13:02:49.552Z,4.90
2023-04-08T13:05:17.039Z,5.28
2023-04-08T13:07:43.543Z,5.10
2023-04-08T13:10:10.295Z,4.10
2023-04-08T13:12:39.911Z,4.38
2023-04-08T13:15:07.372Z,5.80
2023-04-08T13:17:33.833Z,5.53
2023-04-08T13:20:00.705Z,5.32
2023-04-08T13:22:27.131Z,5.88
2023-04-08T13:24:53.516Z,6.10
2023-04-08T13:27:19.941Z,4.90
2023-04-08T13:29:46.296Z,5.70
2023-04-08T13:32:12.733Z,6.53
2023-04-08T13:34:39.190Z,6.47
2023-04-08T13:37:05.629Z,6.43
2023-04-08T13:39:32.063Z,6.40
2023-04-08T13:41:58.462Z,6.05
2023-04-08T13:44:25.565Z,5.63
2023-04-08T13:46:52.086Z,6.80
2023-04-08T13:49:18.477Z,6.93
2023-04-08T13:51:44.873Z,5.95
2023-04-08T13:54:11.400Z,6.05
2023-04-08T13:56:37.783Z,5.50
2023-04-08T13:59:04.177Z,6.70
2023-04-08T14:01:30.694Z,5.93
2023-04-08T14:03:57.128Z,6.55
2023-04-08T14:06:23.539Z,6.35
2023-04-08T14:08:50.754Z,5.55
2023-04-08T14:11:17.418Z,5.65
2023-04-08T14:13:43.809Z,5.90
2023-04-08T14:16:10.369Z,6.20
2023-04-08T14:18:37.541Z,5.80
2023-04-08T14:21:05.303Z,7.05
2023-04-08T14:23:31.698Z,6.75
2023-04-08T14:25:58.091Z,6.28
2023-04-08T14:28:24.461Z,7.40
2023-04-08T14:30:50.947Z,6.63
2023-04-08T14:33:17.615Z,7.85
2023-04-08T14:35:44.112Z,6.80
2023-04-08T14:38:10.476Z,6.25
2023-04-08T14:40:37.896Z,5.63
2023-04-08T14:43:04.429Z,5.45
2023-04-08T14:45:31.415Z,5.55
2023-04-08T14:47:57.897Z,5.65
2023-04-08T14:50:24.392Z,6.25
2023-04-08T14:52:50.730Z,5.85
2023-04-08T14:55:17.245Z,5.38
2023-04-08T14:57:43.602Z,5.72
2023-04-08T15:00:10.584Z,5.63
2023-04-08T15:02:37.057Z,5.05
2023-04-08T15:05:03.841Z,5.47
2023-04-08T15:07:30.348Z,4.88
2023-04-08T15:09:56.817Z,5.38
2023-04-08T15:12:24.329Z,4.90
2023-04-08T15:14:50.917Z,6.53
2023-04-08T15:17:17.247Z,5.43
2023-04-08T15:19:43.603Z,4.63
2023-04-08T15:22:10.223Z,5.45
2023-04-08T15:24:36.929Z,5.22
2023-04-08T15:27:03.475Z,5.70
2023-04-08T15:29:30.115Z,6.53
2023-04-08T15:31:56.465Z,6.35
2023-04-08T15:34:22.830Z,6.75
2023-04-08T15:36:49.172Z,7.18
2023-04-08T15:39:15.544Z,7.35
2023-04-08T15:41:42.137Z,7.15
2023-04-08T15:44:08.572Z,6.75
2023-04-08T15:46:37.293Z,7.32
2023-04-08T15:49:04.086Z,6.63
2023-04-08T15:51:30.483Z,6.80
2023-04-08T15:53:57.309Z,6.85
2023-04-08T15:56:23.718Z,7.30
2023-04-08T15:58:50.304Z,8.10
2023-04-08T16:01:18.483Z,7.85
2023-04-08T16:03:45.082Z,7.32
2023-04-08T16:06:11.846Z,8.30
2023-04-08T16:08:39.463Z,7.40
2023-04-08T16:11:07.767Z,6.88
2023-04-08T16:13:34.674Z,7.78
2023-04-08T16:16:02.104Z,7.38
2023-04-08T16:18:29.335Z,7.28
2023-04-08T16:20:56.746Z,6.70
2023-04-08T16:23:23.190Z,7.93
2023-04-08T16:25:49.571Z,7.10
2023-04-08T16:28:16.226Z,7.47
2023-04-08T16:30:43.858Z,7.45
2023-04-08T16:33:11.212Z,7.28
2023-04-08T16:35:37.777Z,7.57
2023-04-08T16:38:04.527Z,7.30
2023-04-08T16:40:33.056Z,7.20
2023-04-08T16:43:00.698Z,7.30
2023-04-08T16:45:30.709Z,7.70
2023-04-08T16:47:57.345Z,8.90
2023-04-08T16:50:23.977Z,8.60
2023-04-08T16:52:50.424Z,8.35
2023-04-08T16:55:17.553Z,7.72
2023-04-08T16:57:43.936Z,8.68
2023-04-08T17:00:10.852Z,7.78
2023-04-08T17:02:37.427Z,7.60
2023-04-08T17:05:04.131Z,7.88
2023-04-08T17:07:31.078Z,7.97
2023-04-08T17:09:57.498Z,8.50
2023-04-08T17:12:24.060Z,8.23
2023-04-08T17:14:50.460Z,7.88
2023-04-08T17:17:17.017Z,8.57
2023-04-08T17:19:44.079Z,8.82
2023-04-08T17:22:10.453Z,8.15
2023-04-08T17:24:36.892Z,8.88
2023-04-08T17:27:03.434Z,8.80
2023-04-08T17:29:29.831Z,9.00
2023-04-08T17:31:56.478Z,9.18
2023-04-08T17:34:22.943Z,9.60
2023-04-08T17:36:49.324Z,9.70
2023-04-08T17:39:16.212Z,9.02
2023-04-08T17:41:44.055Z,8.70
2023-04-08T17:44:12.139Z,8.88
2023-04-08T17:46:38.523Z,9.20
2023-04-08T17:49:04.895Z,9.95
2023-04-08T17:51:31.917Z,8.32
2023-04-08T17:53:58.748Z,8.07
2023-04-08T17:56:27.030Z,8.65
2023-04-08T17:58:53.514Z,9.07
2023-04-08T18:01:22.100Z,7.82
2023-04-08T18:03:51.091Z,7.82
2023-04-08T18:06:18.048Z,7.13
2023-04-08T18:08:45.280Z,4.93
2023-04-08T18:11:11.998Z,4.03
2023-04-08T18:13:38.371Z,3.72
2023-04-08T18:16:05.191Z,3.15
2023-04-08T18:18:31.747Z,2.80
2023-04-08T18:20:58.122Z,3.45
2023-04-08T18:23:24.572Z,3.22
2023-04-08T18:25:51.006Z,3.38
2023-04-08T18:28:17.373Z,3.30
2023-04-08T18:30:43.865Z,2.72
2023-04-08T18:33:10.264Z,3.03
2023-04-08T18:35:36.906Z,2.75
2023-04-08T18:38:03.331Z,3.38
2023-04-08T18:40:29.705Z,3.47
2023-04-08T18:42:56.126Z,3.38
2023-04-08T18:45:22.709Z,3.25
2023-04-08T18:47:49.250Z,3.95
2023-04-08T18:50:15.971Z,3.58
2023-04-08T18:52:42.690Z,3.72
2023-04-08T18:55:09.148Z,3.42
2023-04-08T18:57:35.693Z,3.70
2023-04-08T19:00:02.150Z,3.30
2023-04-08T19:02:28.637Z,3.85
2023-04-08T19:04:55.810Z,3.92
2023-04-08T19:07:23.141Z,3.67
2023-04-08T19:09:49.510Z,4.10
2023-04-08T19:12:16.110Z,3.35
2023-04-08T19:14:42.510Z,4.18
2023-04-08T19:17:09.657Z,3.65
2023-04-08T19:19:36.162Z,3.72
2023-04-08T19:22:05.487Z,4.00
2023-04-08T19:24:32.842Z,4.50
2023-04-08T19:26:59.850Z,3.80
2023-04-08T19:29:29.519Z,3.60
2023-04-08T19:31:57.324Z,3.80
2023-04-08T19:34:23.827Z,4.18
2023-04-08T19:36:50.237Z,3.88
2023-04-08T19:39:16.911Z,3.88
2023-04-08T19:41:43.266Z,4.90
2023-04-08T19:44:09.711Z,4.63
2023-04-08T19:46:36.086Z,4.10
2023-04-08T19:49:02.872Z,4.40
2023-04-08T19:51:31.025Z,4.70
2023-04-08T19:53:57.449Z,5.35
2023-04-08T19:56:23.824Z,5.85
2023-04-08T19:58:50.450Z,6.32
2023-04-08T20:01:17.508Z,5.40
2023-04-08T20:03:52.076Z,5.40
2023-04-08T20:06:19.712Z,4.80
2023-04-08T20:08:46.262Z,4.88
2023-04-08T20:11:13.518Z,5.65
2023-04-08T20:13:40.328Z,4.78
2023-04-08T20:16:09.990Z,5.65
2023-04-08T20:18:36.409Z,5.68
2023-04-08T20:21:02.885Z,5.32
2023-04-08T20:23:29.260Z,5.40
2023-04-08T20:25:56.529Z,5.45
2023-04-08T20:28:23.535Z,5.63
2023-04-08T20:30:49.991Z,4.22
2023-04-08T20:33:16.380Z,6.00
2023-04-08T20:35:42.785Z,4.90
2023-04-08T20:38:09.630Z,6.00
2023-04-08T20:40:36.076Z,5.03
2023-04-08T20:43:02.433Z,5.53
2023-04-08T20:45:28.805Z,5.47
2023-04-08T20:47:55.557Z,5.60
2023-04-08T20:50:22.037Z,6.00
2023-04-08T20:52:48.444Z,5.47
2023-04-08T20:55:14.823Z,5.68
2023-04-08T20:57:41.682Z,6.35
2023-04-08T21:00:09.404Z,5.75
2023-04-08T21:02:36.300Z,5.68
2023-04-08T21:05:03.067Z,5.95
2023-04-08T21:07:30.213Z,6.43
2023-04-08T21:09:56.635Z,6.32
2023-04-08T21:12:23.008Z,6.10
2023-04-08T21:14:50.837Z,6.05
2023-04-08T21:17:17.284Z,6.40
2023-04-08T21:19:43.703Z,7.13
2023-04-08T21:22:10.191Z,6.65
2023-04-08T21:24:37.807Z,5.90
2023-04-08T21:27:04.541Z,5.70
2023-04-08T21:29:30.920Z,5.95
2023-04-08T21:31:57.350Z,5.82
2023-04-08T21:34:23.903Z,6.05
2023-04-08T21:36:50.291Z,6.43
2023-04-08T21:39:16.785Z,6.90
2023-04-08T21:41:43.345Z,6.15
2023-04-08T21:44:10.330Z,7.03
2023-04-08T21:46:36.776Z,5.80
2023-04-08T21:49:03.222Z,5.72
2023-04-08T21:51:29.674Z,6.88
2023-04-08T21:53:56.099Z,6.63
2023-04-08T21:56:24.391Z,6.80
2023-04-08T21:58:51.066Z,6.93
2023-04-08T22:01:17.748Z,6.10
2023-04-08T22:03:44.635Z,5.95
2023-04-08T22:06:14.496Z,5.63
2023-04-08T22:08:45.669Z,6.32
2023-04-08T22:11:12.322Z,5.65
2023-04-08T22:13:38.798Z,6.40
2023-04-08T22:16:05.676Z,5.50
2023-04-08T22:18:32.026Z,5.78
2023-04-08T22:20:58.405Z,5.43
2023-04-08T22:23:24.807Z,5.93
2023-04-08T22:25:51.427Z,6.78
2023-04-08T22:28:17.971Z,6.45
2023-04-08T22:30:44.379Z,5.95
2023-04-08T22:33:11.097Z,5.57
2023-04-08T22:35:37.689Z,5.78
2023-04-08T22:38:04.101Z,6.22
2023-04-08T22:40:30.448Z,6.43
2023-04-08T22:42:56.961Z,6.50
2023-04-08T22:45:23.481Z,5.82
2023-04-08T22:47:49.872Z,5.60
2023-04-08T22:50:16.364Z,6.15
2023-04-08T22:52:42.749Z,6.15
2023-04-08T22:55:09.351Z,6.18
2023-04-08T22:57:35.780Z,5.50
2023-04-08T23:00:04.656Z,6.18
2023-04-08T23:02:31.288Z,6.68
2023-04-08T23:04:57.757Z,6.32
2023-04-08T23:07:24.270Z,6.20
2023-04-08T23:09:50.833Z,5.88
2023-04-08T23:12:17.282Z,5.93
2023-04-08T23:14:43.637Z,6.43
2023-04-08T23:17:10.102Z,6.25
2023-04-08T23:19:36.487Z,6.70
2023-04-08T23:22:02.888Z,5.43
2023-04-08T23:24:29.241Z,6.05
2023-04-08T23:26:56.685Z,6.55
2023-04-08T23:29:23.109Z,5.65
2023-04-08T23:31:49.497Z,6.85
2023-04-08T23:34:15.922Z,6.32
2023-04-08T23:36:42.284Z,6.93
2023-04-08T23:39:08.623Z,6.75
2023-04-08T23:41:35.221Z,5.97
2023-04-08T23:44:01.595Z,6.43
2023-04-08T23:46:28.206Z,6.38
2023-04-08T23:48:54.799Z,6.40
2023-04-08T23:51:21.307Z,6.43
2023-04-08T23:53:47.692Z,6.60
2023-04-08T23:56:14.073Z,6.47
2023-04-08T23:58:40.586Z,6.10
